This is the latest recevied weather packets stored in our database for station/object kj4yre. If no packets are shown the sender has not sent any weather packets the latest 10 day(s).
| Time | Temp. | Humidity | Pressure | Rain* | Wind** | Luminosity | Snow |
|---|---|---|---|---|---|---|---|
| 1777788136 | 8.89° C | 86% | 1014.5 hPa | 0 mm | - | - | - |
| 1777785434 | 8.33° C | 96% | 1014 hPa | 0 mm | - | - | - |
| 1777783935 | 7.78° C | 97% | 1014.1 hPa | 0 mm | - | - | - |
| 1777783636 | 7.78° C | 97% | 1014.1 hPa | 0 mm | - | - | - |
| 1777782436 | 7.78° C | 98% | 1014 hPa | 0 mm | - | - | - |
| 1777777638 | 7.22° C | 96% | 1014.1 hPa | 0 mm | - | - | - |
| 1777775837 | 7.78° C | 95% | 1013.9 hPa | 0 mm | - | - | - |
| 1777774635 | 8.89° C | 91% | 1014.2 hPa | 0 mm | - | - | - |
| 1777774036 | 8.89° C | 90% | 1014.2 hPa | 0 mm | - | - | - |
| 1777771938 | 9.44° C | 85% | 1014.2 hPa | 0 mm | - | - | - |
| 1777771336 | 10° C | 84% | 1014.1 hPa | 0 mm | - | - | - |
| 1777770736 | 10° C | 84% | 1014.1 hPa | 0 mm | - | - | - |
| 1777769835 | 10.56° C | 81% | 1013.9 hPa | 0 mm | - | - | - |
| 1777769235 | 11.11° C | 75% | 1013.7 hPa | 0 mm | - | - | - |
| 1777767136 | 11.67° C | 78% | 1013.2 hPa | 0 mm | - | - | - |
| 1777766536 | 12.22° C | 73% | 1013.1 hPa | 0 mm | - | - | - |
| 1777766234 | 12.22° C | 72% | 1013 hPa | 0 mm | - | - | - |
| 1777765935 | 12.22° C | 71% | 1013 hPa | 0 mm | - | - | - |
| 1777765036 | 12.78° C | 72% | 1012.9 hPa | 0 mm | - | - | - |
| 1777764737 | 12.78° C | 71% | 1012.8 hPa | 0 mm | - | - | - |
| 1777763836 | 12.78° C | 68% | 1012.6 hPa | 0 mm | - | - | - |
| 1777763537 | 13.33° C | 66% | 1012.6 hPa | 0 mm | - | - | - |
| 1777761436 | 14.44° C | 60% | 1012.7 hPa | 0 mm | - | - | - |
| 1777757537 | 14.44° C | 55% | 1012.7 hPa | 0 mm | - | - | - |
| 1777756337 | 14.44° C | 53% | 1012.5 hPa | 0 mm | - | - | - |
* Rain latest hour (hover to see other rain measurements)
** Current wind speed in m/s (hover to see current wind gust speed)